Time;durP1;ratioP1;P1;durP2;ratioP2;P2;SDS_P1;SDS_P2;PMS_P1;PMS_P2;Temp;Humidity;BMP_temperature;BMP_pressure;BME280_temperature;BME280_humidity;BME280_pressure;Samples;Min_cycle;Max_cycle;Signal;HPM_P1;HPM_P2
2023/01/13 00:01:17;;;;;;;12.45;2.55;;;10.80;99.90;;;;;;5082462;28;20896;-38
2023/01/13 00:03:44;;;;;;;10.23;2.13;;;10.70;99.90;;;;;;5083624;28;20468;-36
2023/01/13 00:06:18;;;;;;;14.60;3.10;;;10.70;99.90;;;;;;5082901;28;20024;-38
2023/01/13 00:08:43;;;;;;;11.30;3.13;;;10.60;99.90;;;;;;5083137;28;20083;-37
2023/01/13 00:11:12;;;;;;;14.10;3.20;;;10.60;99.90;;;;;;5082908;28;20481;-37
2023/01/13 00:13:38;;;;;;;15.63;3.20;;;10.60;99.90;;;;;;5083344;28;20039;-36
2023/01/13 00:16:05;;;;;;;13.30;2.78;;;10.50;99.90;;;;;;5082363;28;20024;-39
2023/01/13 00:18:32;;;;;;;16.58;2.60;;;10.40;99.90;;;;;;5082944;28;20530;-37
2023/01/13 00:21:08;;;;;;;15.98;3.63;;;10.40;99.90;;;;;;5082680;28;20094;-37
2023/01/13 00:23:34;;;;;;;15.27;3.03;;;10.30;99.90;;;;;;5078549;28;20047;-37
2023/01/13 00:26:02;;;;;;;12.38;3.20;;;10.20;99.90;;;;;;5082409;28;20020;-35
2023/01/13 00:28:28;;;;;;;16.27;3.33;;;10.20;99.90;;;;;;5083108;28;20020;-35
2023/01/13 00:31:07;;;;;;;15.98;3.10;;;10.10;99.90;;;;;;5082226;28;20021;-37
2023/01/13 00:33:34;;;;;;;17.90;3.55;;;10.10;99.90;;;;;;5082582;28;20102;-33
2023/01/13 00:36:01;;;;;;;17.60;3.17;;;10.00;99.90;;;;;;5081890;28;20514;-38
2023/01/13 00:38:29;;;;;;;13.38;3.00;;;9.90;99.90;;;;;;5082443;28;20028;-38
2023/01/13 00:40:56;;;;;;;18.73;2.63;;;9.90;99.90;;;;;;5063088;28;20067;-37
2023/01/13 00:43:22;;;;;;;10.45;2.55;;;9.80;99.90;;;;;;5076865;28;20024;-38
2023/01/13 00:45:50;;;;;;;15.30;3.10;;;9.80;99.90;;;;;;5082139;28;20066;-33
2023/01/13 00:48:17;;;;;;;10.27;2.60;;;9.80;99.90;;;;;;5081709;28;20066;-37
2023/01/13 00:50:43;;;;;;;15.02;2.90;;;9.80;99.90;;;;;;5081556;28;20387;-37
2023/01/13 00:53:09;;;;;;;15.15;2.72;;;9.80;99.90;;;;;;5082235;28;20027;-39
2023/01/13 00:55:34;;;;;;;12.18;2.53;;;9.80;99.90;;;;;;5083134;28;20549;-34
2023/01/13 00:58:02;;;;;;;13.27;2.55;;;9.80;99.90;;;;;;5081033;28;20026;-35
2023/01/13 01:00:29;;;;;;;16.67;2.70;;;9.70;99.90;;;;;;5082548;28;20081;-38
2023/01/13 01:02:55;;;;;;;15.60;3.15;;;9.70;99.90;;;;;;5082676;28;20616;-37
2023/01/13 01:05:20;;;;;;;13.05;2.45;;;9.60;99.90;;;;;;5081656;28;20058;-38
2023/01/13 01:07:46;;;;;;;15.93;2.63;;;9.60;99.90;;;;;;5082283;28;20066;-38
2023/01/13 01:10:11;;;;;;;12.93;3.42;;;9.60;99.90;;;;;;5082526;28;20035;-38
2023/01/13 01:12:37;;;;;;;13.50;3.10;;;9.60;99.90;;;;;;5081645;28;20032;-40
2023/01/13 01:15:06;;;;;;;12.85;2.80;;;9.60;99.90;;;;;;5081264;28;20024;-39
2023/01/13 01:17:32;;;;;;;15.98;3.33;;;9.60;99.90;;;;;;5082935;28;20709;-38
2023/01/13 01:19:57;;;;;;;15.35;3.25;;;9.60;99.90;;;;;;5080920;28;20040;-31
2023/01/13 01:22:23;;;;;;;16.30;3.22;;;9.70;99.90;;;;;;5082300;28;20032;-38
2023/01/13 01:24:48;;;;;;;12.27;2.75;;;9.70;99.90;;;;;;5081999;28;20028;-40
2023/01/13 01:27:17;;;;;;;22.92;4.03;;;9.70;99.90;;;;;;5081360;28;20016;-34
2023/01/13 01:29:42;;;;;;;18.85;3.78;;;9.70;99.90;;;;;;5082081;28;20089;-37
2023/01/13 01:32:08;;;;;;;16.30;3.33;;;9.80;99.90;;;;;;5081398;28;20495;-36
2023/01/13 01:34:34;;;;;;;18.67;3.90;;;9.70;99.90;;;;;;5081745;28;20024;-38
2023/01/13 01:37:00;;;;;;;15.43;3.60;;;9.80;99.90;;;;;;5081679;28;20463;-40
2023/01/13 01:39:25;;;;;;;21.75;4.07;;;9.80;99.90;;;;;;5082191;28;20143;-39
2023/01/13 01:44:41;;;;;;;20.02;3.55;;;9.70;99.90;;;;;;5082434;28;20078;-39
2023/01/13 01:47:13;;;;;;;18.08;3.60;;;9.70;99.90;;;;;;5081651;28;20074;-38
2023/01/13 01:49:39;;;;;;;;;;;9.60;99.90;;;;;;5086030;28;20032;-37
2023/01/13 01:52:13;;;;;;;21.35;4.38;;;9.60;99.90;;;;;;5085278;28;20350;-37
2023/01/13 01:55:07;;;;;;;21.77;3.60;;;9.50;99.90;;;;;;5084682;28;20138;-36
2023/01/13 01:57:54;;;;;;;15.65;3.80;;;9.40;99.90;;;;;;5078199;28;20054;-39
2023/01/13 02:00:20;;;;;;;18.17;3.72;;;9.40;99.90;;;;;;5084493;28;20040;-38
2023/01/13 02:02:49;;;;;;;20.13;3.85;;;9.40;99.90;;;;;;5084604;28;20020;-38
2023/01/13 02:05:15;;;;;;;19.20;4.65;;;9.30;99.90;;;;;;5085277;28;20029;-37
2023/01/13 02:07:43;;;;;;;15.55;3.28;;;9.30;99.90;;;;;;5084732;28;20024;-39
2023/01/13 02:10:12;;;;;;;21.58;4.47;;;9.30;99.90;;;;;;5081825;28;20475;-38
2023/01/13 02:12:40;;;;;;;16.92;3.45;;;9.30;99.90;;;;;;5074467;28;20480;-38
2023/01/13 02:15:12;;;;;;;23.50;4.00;;;9.20;99.90;;;;;;5083900;28;20020;-38
2023/01/13 02:17:49;;;;;;;19.63;4.15;;;9.20;99.90;;;;;;5085174;28;20036;-37
2023/01/13 02:20:24;;;;;;;19.92;3.58;;;9.20;99.90;;;;;;5085096;28;20028;-35
2023/01/13 02:26:48;;;;;;;20.15;4.20;;;9.20;99.90;;;;;;5080390;28;20031;-38
2023/01/13 02:32:57;;;;;;;18.63;3.45;;;9.10;99.90;;;;;;5084845;28;20063;-38
2023/01/13 02:35:37;;;;;;;17.38;3.83;;;9.10;99.90;;;;;;5085297;28;20106;-37
2023/01/13 02:38:04;;;;;;;14.98;3.10;;;9.10;99.90;;;;;;5079964;28;20368;-36
2023/01/13 02:40:46;;;;;;;20.75;3.53;;;9.00;99.90;;;;;;5084852;28;20036;-37
2023/01/13 02:46:26;;;;;;;22.35;5.18;;;9.10;99.90;;;;;;5084455;28;20423;-38
2023/01/13 02:48:54;;;;;;;21.70;3.63;;;9.00;99.90;;;;;;5073655;28;20082;-37
2023/01/13 02:51:25;;;;;;;23.50;4.20;;;9.00;99.90;;;;;;5083863;28;20031;-37
2023/01/13 02:53:56;;;;;;;19.45;3.40;;;9.00;99.90;;;;;;5084636;28;20036;-35
2023/01/13 02:56:23;;;;;;;19.95;4.43;;;9.00;99.90;;;;;;5084844;28;20027;-34
2023/01/13 02:58:50;;;;;;;19.55;3.72;;;9.00;99.90;;;;;;5083819;28;20372;-40
2023/01/13 03:01:16;;;;;;;18.63;3.63;;;9.10;99.90;;;;;;5084315;28;20031;-37
2023/01/13 03:03:43;;;;;;;20.98;3.80;;;9.10;99.90;;;;;;5084495;28;20688;-37
2023/01/13 03:06:50;;;;;;;22.63;3.30;;;9.10;99.90;;;;;;5083516;28;20028;-38
2023/01/13 03:09:31;;;;;;;22.15;3.10;;;9.10;99.90;;;;;;5043665;28;20171;-38
2023/01/13 03:12:20;;;;;;;14.70;3.50;;;9.10;99.90;;;;;;5082973;28;20176;-39
2023/01/13 03:15:14;;;;;;;27.30;4.43;;;9.20;99.90;;;;;;5073565;28;20028;-36
2023/01/13 03:17:48;;;;;;;13.73;3.20;;;9.20;99.90;;;;;;5083817;28;20020;-38
2023/01/13 03:20:20;;;;;;;21.42;3.50;;;9.20;99.90;;;;;;5082956;28;20052;-37
2023/01/13 03:22:55;;;;;;;23.58;4.40;;;9.30;99.90;;;;;;5084261;28;20023;-35
2023/01/13 03:25:28;;;;;;;16.90;3.80;;;9.30;99.90;;;;;;5083423;28;20032;-37
2023/01/13 03:28:02;;;;;;;22.33;3.60;;;9.30;99.90;;;;;;5084211;28;20023;-36
2023/01/13 03:30:35;;;;;;;13.27;3.00;;;9.30;99.90;;;;;;5084732;28;20039;-37
2023/01/13 03:33:10;;;;;;;16.65;3.63;;;9.40;99.90;;;;;;5082271;28;20047;-37
2023/01/13 03:35:45;;;;;;;24.05;4.43;;;9.40;99.90;;;;;;5083834;28;20036;-39
2023/01/13 03:38:20;;;;;;;17.60;3.58;;;9.40;99.90;;;;;;5082707;28;20102;-37
2023/01/13 03:41:08;;;;;;;16.67;3.65;;;9.40;99.90;;;;;;5082976;28;20135;-36
2023/01/13 03:44:22;;;;;;;20.65;3.85;;;9.40;99.90;;;;;;5083314;28;20083;-32
2023/01/13 03:47:03;;;;;;;20.40;3.60;;;9.40;99.90;;;;;;5082859;28;20024;-35
2023/01/13 03:49:39;;;;;;;18.30;3.75;;;9.40;99.90;;;;;;5083658;28;20440;-37
2023/01/13 03:52:09;;;;;;;14.02;3.35;;;9.40;99.90;;;;;;5082807;28;20028;-39
2023/01/13 03:54:43;;;;;;;22.27;3.47;;;9.40;99.90;;;;;;5082873;28;20106;-38
2023/01/13 03:57:12;;;;;;;21.70;3.67;;;9.40;99.90;;;;;;5082965;28;20475;-37
2023/01/13 03:59:42;;;;;;;14.70;3.35;;;9.40;99.90;;;;;;5083986;28;20065;-35
2023/01/13 04:02:44;;;;;;;18.98;3.45;;;9.40;99.90;;;;;;5082003;28;20028;-36
2023/01/13 04:05:10;;;;;;;16.25;3.55;;;9.50;99.90;;;;;;5051406;28;20039;-31
2023/01/13 04:08:00;;;;;;;16.08;3.00;;;9.50;99.90;;;;;;5082407;28;20511;-34
2023/01/13 04:10:43;;;;;;;18.33;3.40;;;9.50;99.90;;;;;;5082830;28;20058;-39
2023/01/13 04:13:15;;;;;;;;;;;9.40;99.90;;;;;;5062903;28;20024;-39
2023/01/13 04:15:44;;;;;;;14.50;2.95;;;9.40;99.90;;;;;;5078497;28;20346;-36
2023/01/13 04:18:11;;;;;;;15.75;2.92;;;9.30;99.90;;;;;;5062581;28;20032;-37
2023/01/13 04:20:37;;;;;;;15.68;2.95;;;9.30;99.90;;;;;;5077267;28;20016;-37
2023/01/13 04:23:03;;;;;;;12.32;3.28;;;9.20;99.90;;;;;;5081775;28;20066;-37
2023/01/13 04:25:28;;;;;;;17.75;2.78;;;9.10;99.90;;;;;;5082940;28;20123;-36
2023/01/13 04:27:54;;;;;;;15.90;3.10;;;9.10;99.90;;;;;;5082634;28;20498;-38
2023/01/13 04:30:19;;;;;;;13.85;3.22;;;9.00;99.90;;;;;;5081640;28;20020;-36
2023/01/13 04:32:45;;;;;;;15.95;2.65;;;9.00;99.90;;;;;;5083253;28;20047;-36
2023/01/13 04:35:10;;;;;;;13.40;2.95;;;9.00;99.90;;;;;;5082162;28;20024;-38
2023/01/13 04:37:36;;;;;;;14.63;2.97;;;8.90;99.90;;;;;;5082539;28;20020;-39
2023/01/13 04:40:02;;;;;;;15.10;2.53;;;8.90;99.90;;;;;;5082238;28;20147;-37
2023/01/13 04:42:27;;;;;;;13.35;2.50;;;8.90;99.90;;;;;;5083046;28;20032;-37
2023/01/13 04:44:53;;;;;;;12.02;2.38;;;8.80;99.90;;;;;;5082592;28;20031;-40
2023/01/13 04:47:18;;;;;;;8.57;1.67;;;8.80;99.90;;;;;;5082384;28;20028;-39
2023/01/13 04:49:44;;;;;;;6.68;1.50;;;8.80;99.90;;;;;;5082157;28;20039;-38
2023/01/13 04:52:09;;;;;;;7.43;1.70;;;8.80;99.90;;;;;;5081385;28;20024;-40
2023/01/13 04:54:35;;;;;;;9.57;1.88;;;8.80;99.90;;;;;;5083329;28;20032;-38
2023/01/13 04:57:00;;;;;;;6.22;1.42;;;8.80;99.90;;;;;;5081840;28;20089;-36
2023/01/13 04:59:26;;;;;;;4.97;1.45;;;8.80;99.90;;;;;;5082874;28;20047;-35
2023/01/13 05:01:51;;;;;;;7.07;1.67;;;8.80;99.90;;;;;;5082928;28;20071;-39
2023/01/13 05:04:17;;;;;;;6.38;1.65;;;8.80;99.90;;;;;;5081324;28;20119;-39
2023/01/13 05:06:42;;;;;;;8.88;1.80;;;8.80;99.90;;;;;;5083003;28;20020;-38
2023/01/13 05:09:10;;;;;;;5.53;1.52;;;8.80;99.90;;;;;;5082085;28;20043;-39
2023/01/13 05:17:04;;;;;;;8.57;1.42;;;8.80;99.90;;;;;;5082118;28;20035;-37
2023/01/13 05:19:32;;;;;;;10.02;1.80;;;8.90;99.90;;;;;;5081825;28;20040;-37
2023/01/13 05:27:28;;;;;;;8.55;1.52;;;8.90;99.90;;;;;;5085972;28;20081;-38
2023/01/13 05:29:57;;;;;;;7.07;1.90;;;8.90;99.90;;;;;;5086297;28;20415;-37
2023/01/13 05:32:23;;;;;;;10.23;1.58;;;8.90;99.90;;;;;;5085311;28;20052;-39
2023/01/13 05:34:52;;;;;;;6.47;1.67;;;8.90;99.90;;;;;;5086332;28;20026;-36
2023/01/13 05:37:18;;;;;;;6.35;1.52;;;9.00;99.90;;;;;;5085555;28;20036;-37
2023/01/13 05:45:12;;;;;;;8.45;1.80;;;9.00;99.90;;;;;;5085249;28;20180;-39
2023/01/13 05:47:38;;;;;;;7.68;1.55;;;9.10;99.90;;;;;;5085686;28;20103;-39
2023/01/13 05:50:04;;;;;;;6.53;1.73;;;9.10;99.90;;;;;;5085391;28;20020;-36
2023/01/13 05:52:29;;;;;;;7.47;1.55;;;9.10;99.90;;;;;;5085726;28;20031;-36
2023/01/13 05:54:55;;;;;;;8.85;1.50;;;9.10;99.90;;;;;;5085063;28;20032;-36
2023/01/13 05:57:21;;;;;;;12.48;1.95;;;9.10;99.90;;;;;;5085672;28;20028;-38
2023/01/13 05:59:46;;;;;;;10.55;1.98;;;9.10;99.90;;;;;;5085536;28;20092;-35
2023/01/13 06:02:12;;;;;;;10.20;1.90;;;9.10;99.90;;;;;;5084580;28;20028;-37
2023/01/13 06:04:37;;;;;;;10.88;2.38;;;9.00;99.90;;;;;;5085719;28;20020;-36
2023/01/13 06:07:03;;;;;;;15.18;2.35;;;9.00;99.90;;;;;;5084777;28;20024;-36
2023/01/13 06:09:29;;;;;;;7.88;1.77;;;8.90;99.90;;;;;;5085213;28;20538;-38
2023/01/13 06:11:54;;;;;;;9.20;1.90;;;8.90;99.90;;;;;;5085703;28;20020;-37
2023/01/13 06:14:20;;;;;;;11.00;2.42;;;8.80;99.90;;;;;;5084674;28;20024;-37
2023/01/13 06:16:45;;;;;;;13.68;2.20;;;8.80;99.90;;;;;;5085158;28;20027;-33
2023/01/13 06:19:12;;;;;;;8.45;2.05;;;8.70;99.90;;;;;;5084433;28;20463;-34
2023/01/13 06:21:41;;;;;;;12.50;2.15;;;8.70;99.90;;;;;;5084628;28;20032;-35
2023/01/13 06:24:07;;;;;;;10.48;2.10;;;8.70;99.90;;;;;;5084577;28;20020;-37
2023/01/13 06:26:39;;;;;;;10.75;2.00;;;8.70;99.90;;;;;;5085786;28;20032;-33
2023/01/13 06:29:05;;;;;;;8.40;2.03;;;8.70;99.90;;;;;;5083961;28;20016;-36
2023/01/13 06:31:32;;;;;;;9.93;2.40;;;8.70;99.90;;;;;;5085364;28;20038;-37
2023/01/13 06:34:04;;;;;;;13.65;3.58;;;8.60;99.90;;;;;;5084373;28;20157;-37
2023/01/13 06:36:35;;;;;;;12.60;2.45;;;8.60;99.90;;;;;;5074215;28;20055;-38
2023/01/13 06:39:02;;;;;;;9.50;2.28;;;8.60;99.90;;;;;;5084445;28;20032;-38
2023/01/13 06:44:15;;;;;;;11.23;2.30;;;8.50;99.90;;;;;;5083667;28;20105;-38
2023/01/13 06:46:41;;;;;;;10.73;2.70;;;8.50;99.90;;;;;;5084454;28;20053;-38
2023/01/13 06:49:06;;;;;;;12.43;2.25;;;8.60;99.90;;;;;;5083903;28;20619;-38
2023/01/13 06:51:32;;;;;;;12.30;3.15;;;8.60;99.90;;;;;;5084990;28;20124;-38
2023/01/13 06:53:58;;;;;;;12.98;2.45;;;8.60;99.90;;;;;;5084011;28;20032;-38
2023/01/13 06:56:26;;;;;;;14.27;2.75;;;8.60;99.90;;;;;;5081439;28;20487;-38
2023/01/13 06:58:51;;;;;;;11.65;2.33;;;8.70;99.90;;;;;;5083740;28;20043;-36
2023/01/13 07:01:17;;;;;;;8.93;2.10;;;8.70;99.90;;;;;;5082801;28;20032;-37
2023/01/13 07:03:43;;;;;;;11.77;2.55;;;8.80;99.90;;;;;;5082923;28;20035;-40
2023/01/13 07:06:08;;;;;;;16.02;2.67;;;8.80;99.90;;;;;;5082029;28;20028;-37
2023/01/13 07:08:34;;;;;;;13.85;2.60;;;8.90;99.90;;;;;;5083761;28;20027;-36
2023/01/13 07:11:01;;;;;;;14.27;2.75;;;8.90;99.90;;;;;;5081488;28;20036;-34
2023/01/13 07:16:11;;;;;;;17.58;3.58;;;8.90;99.90;;;;;;5082465;28;20172;-36
2023/01/13 07:18:37;;;;;;;16.02;4.07;;;8.90;99.90;;;;;;5082393;28;20472;-35
2023/01/13 07:21:06;;;;;;;15.90;2.67;;;8.90;99.90;;;;;;5082303;28;20024;-38
2023/01/13 07:23:34;;;;;;;10.35;2.30;;;8.90;99.90;;;;;;5083780;28;20041;-33
2023/01/13 07:26:00;;;;;;;12.88;2.42;;;8.90;99.90;;;;;;5081941;28;20024;-36
2023/01/13 07:28:28;;;;;;;13.30;2.63;;;8.90;99.90;;;;;;5084750;28;20117;-37
2023/01/13 07:30:57;;;;;;;11.30;2.40;;;9.00;99.90;;;;;;5082966;28;20475;-38
2023/01/13 07:33:23;;;;;;;14.70;2.30;;;9.00;99.90;;;;;;5081466;28;20052;-36
2023/01/13 07:35:56;;;;;;;10.95;2.20;;;9.00;99.90;;;;;;5083967;28;20077;-37
2023/01/13 07:38:22;;;;;;;8.75;2.30;;;9.00;99.90;;;;;;5083553;28;20024;-36
2023/01/13 07:40:48;;;;;;;13.30;2.60;;;9.00;99.90;;;;;;5083133;28;20058;-38
2023/01/13 07:43:32;;;;;;;14.52;2.75;;;8.90;99.90;;;;;;5083110;28;20386;-39
2023/01/13 07:46:03;;;;;;;10.25;2.17;;;8.90;99.90;;;;;;5082116;28;20040;-37
2023/01/13 07:48:30;;;;;;;14.25;2.47;;;8.90;99.90;;;;;;5083305;28;20024;-38
2023/01/13 07:51:10;;;;;;;15.50;2.70;;;8.80;99.90;;;;;;5083000;28;20081;-38
2023/01/13 07:53:36;;;;;;;12.77;2.70;;;8.80;99.90;;;;;;5079441;28;20086;-38
2023/01/13 07:56:03;;;;;;;16.10;3.00;;;8.90;99.90;;;;;;5082439;28;20035;-34
2023/01/13 07:58:29;;;;;;;12.88;3.17;;;8.90;99.90;;;;;;5083245;28;20124;-36
2023/01/13 08:00:55;;;;;;;14.30;2.78;;;8.90;99.90;;;;;;5083176;28;20066;-40
2023/01/13 08:03:21;;;;;;;14.25;3.13;;;9.00;99.90;;;;;;5082839;28;20066;-37
2023/01/13 08:05:47;;;;;;;16.02;3.08;;;9.00;99.90;;;;;;5083121;28;20577;-41
2023/01/13 08:08:13;;;;;;;14.77;3.03;;;9.00;99.90;;;;;;5082122;28;20051;-34
2023/01/13 08:10:39;;;;;;;16.98;2.88;;;9.00;99.90;;;;;;5083249;28;20131;-40
2023/01/13 08:13:16;;;;;;;12.93;2.78;;;9.00;99.90;;;;;;5083308;28;20095;-34
2023/01/13 08:15:46;;;;;;;13.82;3.15;;;9.10;99.90;;;;;;5082602;28;20028;-38
2023/01/13 08:18:12;;;;;;;13.88;3.00;;;9.10;99.90;;;;;;5081718;28;20111;-39
2023/01/13 08:20:38;;;;;;;14.65;3.00;;;9.10;99.90;;;;;;5082644;28;20040;-35
2023/01/13 08:23:04;;;;;;;15.18;3.70;;;9.10;99.90;;;;;;5082103;28;20073;-38
2023/01/13 08:25:30;;;;;;;13.00;3.08;;;9.10;99.90;;;;;;5082542;28;20050;-38
2023/01/13 08:27:56;;;;;;;16.58;3.28;;;9.10;99.90;;;;;;5082138;28;20912;-34
2023/01/13 08:30:22;;;;;;;12.93;2.85;;;9.10;99.90;;;;;;5082483;28;20016;-32
2023/01/13 08:32:48;;;;;;;12.55;2.60;;;9.10;99.90;;;;;;5082069;28;20059;-37
2023/01/13 08:35:16;;;;;;;18.35;3.33;;;9.20;99.90;;;;;;5081245;28;20764;-38
2023/01/13 08:37:42;;;;;;;13.68;3.05;;;9.10;99.90;;;;;;5082499;28;20028;-38
2023/01/13 08:40:08;;;;;;;15.77;3.38;;;9.10;99.90;;;;;;5082015;28;20040;-36
2023/01/13 08:42:34;;;;;;;13.40;3.53;;;9.20;99.90;;;;;;5082163;28;20108;-38
2023/01/13 08:44:59;;;;;;;13.10;2.80;;;9.20;99.90;;;;;;5081441;28;20036;-39
2023/01/13 08:47:27;;;;;;;14.02;2.85;;;9.20;99.90;;;;;;5082775;28;20040;-38
2023/01/13 08:49:52;;;;;;;16.33;2.70;;;9.20;99.90;;;;;;5082064;28;20028;-37
2023/01/13 08:52:18;;;;;;;11.32;2.95;;;9.20;99.90;;;;;;5082020;28;20085;-39
2023/01/13 08:54:44;;;;;;;20.25;3.08;;;9.20;99.90;;;;;;5082592;28;20059;-35
2023/01/13 08:57:10;;;;;;;17.15;3.55;;;9.20;99.90;;;;;;5083914;28;20444;-35
2023/01/13 08:59:36;;;;;;;14.65;3.00;;;9.20;99.90;;;;;;5086339;28;20043;-36
2023/01/13 09:02:02;;;;;;;16.77;3.15;;;9.20;99.90;;;;;;5085893;28;20412;-38
2023/01/13 09:04:28;;;;;;;16.95;2.80;;;9.20;99.90;;;;;;5086083;28;20368;-39
2023/01/13 09:06:54;;;;;;;17.88;3.65;;;9.30;99.90;;;;;;5086764;28;20024;-38
2023/01/13 09:09:21;;;;;;;19.98;3.22;;;9.30;99.90;;;;;;5084996;28;20028;-38
2023/01/13 09:14:36;;;;;;;13.63;4.05;;;9.30;99.90;;;;;;5086505;28;20054;-38
2023/01/13 09:17:02;;;;;;;16.58;3.53;;;9.30;99.90;;;;;;5084688;28;20030;-36
2023/01/13 09:19:28;;;;;;;15.35;3.30;;;9.30;99.90;;;;;;5085201;28;20074;-38
2023/01/13 09:21:55;;;;;;;13.63;2.90;;;9.30;99.90;;;;;;5086090;28;20046;-37
2023/01/13 09:24:23;;;;;;;17.23;3.83;;;9.30;99.90;;;;;;5084192;28;20024;-37
2023/01/13 09:26:48;;;;;;;16.85;3.47;;;9.20;99.90;;;;;;5084713;28;20016;-37
2023/01/13 09:29:15;;;;;;;15.73;3.40;;;9.20;99.90;;;;;;5085276;28;20066;-37
2023/01/13 09:31:41;;;;;;;12.27;2.90;;;9.20;99.90;;;;;;5084975;28;20020;-39
2023/01/13 09:36:54;;;;;;;14.43;2.92;;;9.30;99.90;;;;;;5085151;28;20035;-37
2023/01/13 09:39:21;;;;;;;18.70;3.03;;;9.30;99.90;;;;;;5084456;28;20036;-37
2023/01/13 09:44:57;;;;;;;17.33;3.13;;;9.30;99.90;;;;;;5085640;28;20121;-38
2023/01/13 09:47:42;;;;;;;17.75;3.83;;;9.30;99.90;;;;;;5084599;28;20031;-38
2023/01/13 09:50:18;;;;;;;17.73;3.88;;;9.20;99.90;;;;;;5084510;28;20361;-37
2023/01/13 09:52:44;;;;;;;25.88;3.30;;;9.20;99.90;;;;;;5084848;28;20032;-36
2023/01/13 09:55:15;;;;;;;23.70;4.55;;;9.20;99.90;;;;;;5043939;28;20020;-37
2023/01/13 09:57:41;;;;;;;20.45;4.38;;;9.20;99.90;;;;;;4961129;28;20032;-32
2023/01/13 10:00:15;;;;;;;21.02;4.00;;;9.10;99.90;;;;;;5085897;28;20067;-37
2023/01/13 10:03:00;;;;;;;14.00;3.60;;;9.10;99.90;;;;;;5087105;28;20472;-38
2023/01/13 10:05:43;;;;;;;14.50;3.22;;;9.00;99.90;;;;;;5085524;28;20024;-37
2023/01/13 10:08:16;;;;;;;18.35;4.30;;;9.00;99.90;;;;;;5084171;28;20055;-38
2023/01/13 10:10:50;;;;;;;20.45;4.13;;;9.00;99.90;;;;;;5085353;28;20035;-36
2023/01/13 10:13:30;;;;;;;21.23;3.45;;;9.00;99.90;;;;;;5080017;28;20016;-38
2023/01/13 10:16:11;;;;;;;18.27;3.42;;;8.90;99.90;;;;;;5084637;28;20020;-37
2023/01/13 10:18:44;;;;;;;15.13;3.53;;;8.80;99.90;;;;;;5082756;28;20562;-38
2023/01/13 10:21:44;;;;;;;18.23;3.22;;;8.80;99.90;;;;;;5084088;28;20031;-38
2023/01/13 10:24:21;;;;;;;16.80;3.15;;;8.80;99.90;;;;;;5074105;28;20476;-37
2023/01/13 10:27:11;;;;;;;16.02;3.47;;;8.80;99.90;;;;;;5084547;28;20023;-36
2023/01/13 10:29:37;;;;;;;22.15;4.55;;;8.80;99.90;;;;;;5084660;28;20042;-38
2023/01/13 10:32:11;;;;;;;17.67;4.18;;;8.80;99.90;;;;;;5083730;28;20056;-37
2023/01/13 10:34:50;;;;;;;13.77;2.90;;;8.80;99.90;;;;;;5083288;28;20060;-35
2023/01/13 10:37:25;;;;;;;13.93;3.08;;;8.90;99.90;;;;;;5083455;28;20455;-35
2023/01/13 10:39:54;;;;;;;13.50;3.45;;;8.90;99.90;;;;;;5084884;28;20036;-38
2023/01/13 10:42:22;;;;;;;15.27;3.03;;;8.90;99.90;;;;;;5082497;28;20024;-38
2023/01/13 10:44:54;;;;;;;14.27;3.70;;;9.00;99.90;;;;;;5084595;28;20028;-34
2023/01/13 10:47:28;;;;;;;15.30;4.00;;;9.00;99.90;;;;;;5083649;28;20415;-38
2023/01/13 10:50:23;;;;;;;14.48;3.10;;;9.00;99.90;;;;;;5073045;28;20032;-37
2023/01/13 10:53:17;;;;;;;15.77;3.10;;;9.10;99.90;;;;;;5084045;28;20022;-39
2023/01/13 10:55:43;;;;;;;17.73;3.35;;;9.10;99.90;;;;;;5081181;28;20237;-37
2023/01/13 10:58:15;;;;;;;16.40;3.15;;;9.10;99.90;;;;;;5083040;28;20020;-40
2023/01/13 11:00:41;;;;;;;21.27;3.72;;;9.20;99.90;;;;;;5083882;28;20495;-38
2023/01/13 11:03:13;;;;;;;11.93;2.80;;;9.20;99.90;;;;;;5082763;28;20052;-39
2023/01/13 11:05:38;;;;;;;15.57;2.83;;;9.20;99.90;;;;;;5083612;28;20443;-36
2023/01/13 11:08:14;;;;;;;15.18;2.80;;;9.20;99.90;;;;;;5083626;28;20088;-34
2023/01/13 11:10:46;;;;;;;17.08;3.40;;;9.20;99.90;;;;;;5072840;28;20096;-39
2023/01/13 11:13:16;;;;;;;16.93;3.30;;;9.20;99.90;;;;;;5083145;28;20574;-40
2023/01/13 11:16:11;;;;;;;13.13;3.38;;;9.20;99.90;;;;;;5083999;28;20281;-35
2023/01/13 11:18:37;;;;;;;21.95;3.10;;;9.10;99.90;;;;;;5083787;28;20036;-38
2023/01/13 11:21:16;;;;;;;13.80;3.10;;;9.00;99.90;;;;;;5083220;28;20456;-36
2023/01/13 11:24:02;;;;;;;16.33;3.03;;;9.00;99.90;;;;;;5082212;28;20858;-38
2023/01/13 11:26:42;;;;;;;17.80;3.20;;;8.90;99.90;;;;;;5083471;28;20024;-39
2023/01/13 11:29:19;;;;;;;17.70;3.55;;;8.90;99.90;;;;;;5083415;28;20439;-39
2023/01/13 11:31:50;;;;;;;13.63;3.25;;;9.00;99.90;;;;;;5082437;28;20020;-39
2023/01/13 11:34:35;;;;;;;16.35;3.15;;;9.10;99.90;;;;;;5081790;28;20031;-39
2023/01/13 11:37:08;;;;;;;16.95;2.97;;;9.10;99.90;;;;;;5083107;28;20046;-38
2023/01/13 11:40:02;;;;;;;14.70;3.40;;;9.20;99.90;;;;;;5082371;28;20101;-37
2023/01/13 11:42:54;;;;;;;13.40;2.72;;;9.20;99.90;;;;;;5087266;28;20031;-39
2023/01/13 11:45:28;;;;;;;14.77;3.13;;;9.20;99.90;;;;;;5087582;28;20395;-34
2023/01/13 11:47:57;;;;;;;14.00;2.80;;;9.30;99.90;;;;;;5083168;28;20494;-37
2023/01/13 11:50:34;;;;;;;22.20;3.42;;;9.30;99.90;;;;;;5081895;28;20064;-37
2023/01/13 11:53:27;;;;;;;15.05;3.08;;;9.30;99.90;;;;;;5082205;28;20024;-38
2023/01/13 11:56:02;;;;;;;13.82;3.20;;;9.40;99.90;;;;;;5083130;28;20782;-38
2023/01/13 11:58:45;;;;;;;13.13;2.67;;;9.30;99.90;;;;;;5082961;28;20036;-35
2023/01/13 12:01:47;;;;;;;14.93;2.72;;;9.30;99.90;;;;;;5081711;28;20043;-38
2023/01/13 12:04:26;;;;;;;13.90;2.70;;;9.30;99.90;;;;;;5061795;28;20111;-39
2023/01/13 12:07:11;;;;;;;13.43;2.90;;;9.30;99.90;;;;;;5081076;28;20020;-36
2023/01/13 12:09:55;;;;;;;16.48;3.58;;;9.40;99.90;;;;;;5082825;28;20047;-39
2023/01/13 12:12:35;;;;;;;18.13;3.17;;;9.40;99.90;;;;;;5078896;28;20032;-37
2023/01/13 12:15:20;;;;;;;17.25;4.32;;;9.40;99.90;;;;;;5081179;28;20498;-39
2023/01/13 12:18:10;;;;;;;10.68;2.65;;;9.40;99.90;;;;;;5082969;28;20504;-38
2023/01/13 12:21:12;;;;;;;14.68;2.95;;;9.40;99.90;;;;;;5081877;28;20109;-36
2023/01/13 12:23:43;;;;;;;15.82;3.40;;;9.40;99.90;;;;;;5082693;28;20036;-39
2023/01/13 12:26:11;;;;;;;17.67;3.22;;;9.40;99.90;;;;;;5081860;28;20406;-36
2023/01/13 12:28:52;;;;;;;18.35;2.95;;;9.40;99.90;;;;;;5082149;28;20016;-39
2023/01/13 12:31:18;;;;;;;16.20;3.50;;;9.30;99.90;;;;;;5081474;28;20085;-38
2023/01/13 12:33:53;;;;;;;11.52;2.60;;;9.30;99.90;;;;;;5081952;28;20492;-39
2023/01/13 12:37:03;;;;;;;17.73;3.53;;;9.30;99.90;;;;;;5081116;28;20043;-34
2023/01/13 12:40:01;;;;;;;12.02;2.75;;;9.20;99.90;;;;;;4999180;28;20117;-38
2023/01/13 12:44:15;;;;;;;12.40;2.55;;;9.20;99.90;;;;;;5081831;28;20126;-36
2023/01/13 12:45:46;;;;;;;20.80;3.22;;;9.20;99.90;;;;;;5061596;28;20532;-37
2023/01/13 12:49:03;;;;;;;14.50;2.92;;;9.20;99.90;;;;;;5080937;28;20020;-38
2023/01/13 12:51:35;;;;;;;14.68;2.50;;;9.20;99.90;;;;;;5037174;28;20115;-36
2023/01/13 12:54:20;;;;;;;15.25;3.05;;;9.10;99.90;;;;;;5070985;28;20079;-36
2023/01/13 12:56:46;;;;;;;22.05;3.60;;;9.10;99.90;;;;;;5081747;28;20034;-38
2023/01/13 12:59:17;;;;;;;13.48;2.70;;;9.10;99.90;;;;;;5080931;28;20032;-37
2023/01/13 13:01:45;;;;;;;13.70;2.80;;;9.00;99.90;;;;;;5081780;28;20518;-37
2023/01/13 13:04:13;;;;;;;15.48;3.22;;;9.00;99.90;;;;;;5081254;28;20048;-39
2023/01/13 13:06:42;;;;;;;16.75;2.88;;;9.10;99.90;;;;;;5082696;28;20478;-38
2023/01/13 13:09:31;;;;;;;16.70;2.92;;;9.10;99.90;;;;;;5077743;28;20046;-35
2023/01/13 13:14:41;;;;;;;15.35;2.72;;;9.20;99.90;;;;;;5081911;28;20042;-37
2023/01/13 13:17:18;;;;;;;15.93;2.75;;;9.20;99.90;;;;;;5081413;28;20063;-38
2023/01/13 13:19:46;;;;;;;15.15;3.10;;;9.20;99.90;;;;;;5082079;28;20064;-39
2023/01/13 13:22:12;;;;;;;11.25;2.20;;;9.20;99.90;;;;;;5081705;28;20034;-34
2023/01/13 13:24:39;;;;;;;13.85;2.38;;;9.20;99.90;;;;;;5081640;28;20028;-38
2023/01/13 13:27:29;;;;;;;15.95;3.13;;;9.30;99.90;;;;;;5081725;28;20028;-38
2023/01/13 13:30:16;;;;;;;10.68;2.00;;;9.30;99.90;;;;;;5082018;28;20039;-36
2023/01/13 13:33:09;;;;;;;15.48;2.80;;;9.40;99.90;;;;;;5081568;28;20742;-35
2023/01/13 13:35:55;;;;;;;15.07;2.75;;;9.40;99.90;;;;;;5071737;28;20039;-37
2023/01/13 13:47:06;;;;;;;14.07;3.00;;;9.50;99.90;;;;;;5085918;28;20038;-38
2023/01/13 13:49:45;;;;;;;12.55;2.50;;;9.50;99.90;;;;;;5085345;28;20032;-34
2023/01/13 13:52:10;;;;;;;10.63;2.13;;;9.60;99.90;;;;;;5084778;28;20105;-35
2023/01/13 13:54:39;;;;;;;10.43;2.33;;;9.60;99.90;;;;;;5085415;28;20032;-36
2023/01/13 13:57:15;;;;;;;11.88;2.85;;;9.60;99.90;;;;;;5085214;28;20081;-37
2023/01/13 13:59:41;;;;;;;10.88;2.20;;;9.60;99.90;;;;;;5084416;28;20032;-38
2023/01/13 14:02:22;;;;;;;11.80;2.55;;;9.60;99.90;;;;;;5084926;28;20763;-38
2023/01/13 14:04:48;;;;;;;12.52;2.35;;;9.60;99.90;;;;;;5085535;28;20077;-39
2023/01/13 14:07:19;;;;;;;10.60;1.88;;;9.70;99.90;;;;;;5083735;28;20020;-39